createdAt,value
2023-11-29T00:02:09.921Z,6.2
2023-11-29T00:05:09.926Z,6.2
2023-11-29T00:08:10.239Z,6.1
2023-11-29T00:11:09.622Z,6.2
2023-11-29T00:14:10.941Z,6.1
2023-11-29T00:17:14.750Z,6.2
2023-11-29T00:20:10.310Z,6.2
2023-11-29T00:23:10.104Z,6.2
2023-11-29T00:26:09.457Z,6.4
2023-11-29T00:29:09.794Z,6.4
2023-11-29T00:32:09.783Z,6.4
2023-11-29T00:35:12.611Z,6.4
2023-11-29T00:38:09.402Z,6.5
2023-11-29T00:41:09.470Z,6.5
2023-11-29T00:44:17.298Z,6.1
2023-11-29T00:47:09.481Z,6.1
2023-11-29T00:50:09.787Z,6.4
2023-11-29T00:53:09.554Z,6.7
2023-11-29T00:56:14.627Z,6.9
2023-11-29T00:59:09.441Z,6.9
2023-11-29T01:02:09.956Z,7.0
2023-11-29T01:05:09.913Z,6.7
2023-11-29T01:08:09.426Z,6.2
2023-11-29T01:11:12.723Z,5.7
2023-11-29T01:14:09.477Z,5.5
2023-11-29T01:17:09.542Z,5.5
2023-11-29T01:20:10.292Z,5.5
2023-11-29T01:23:15.099Z,5.4
2023-11-29T01:26:09.380Z,5.2
2023-11-29T01:29:11.711Z,5.0
2023-11-29T01:32:09.628Z,4.7
2023-11-29T01:35:09.864Z,4.3
2023-11-29T01:38:09.455Z,4.1
2023-11-29T01:41:09.526Z,4.1
2023-11-29T01:44:10.270Z,4.0
2023-11-29T01:47:10.403Z,4.3
2023-11-29T01:50:10.708Z,4.5
2023-11-29T01:53:11.601Z,4.7
2023-11-29T01:56:09.440Z,4.8
2023-11-29T01:59:09.378Z,4.8
2023-11-29T02:02:09.586Z,4.7
2023-11-29T02:05:09.840Z,4.4
2023-11-29T02:08:09.438Z,4.4
2023-11-29T02:11:09.496Z,4.4
2023-11-29T02:14:09.311Z,4.7
2023-11-29T02:17:09.471Z,5.0
2023-11-29T02:20:11.554Z,5.1
2023-11-29T02:23:09.784Z,5.0
2023-11-29T02:26:09.678Z,4.8
2023-11-29T02:29:09.382Z,4.8
2023-11-29T02:32:09.810Z,4.8
2023-11-29T02:35:09.748Z,4.8
2023-11-29T02:38:09.401Z,4.7
2023-11-29T02:41:09.585Z,4.5
2023-11-29T02:44:09.387Z,4.4
2023-11-29T02:47:09.491Z,4.2
2023-11-29T02:50:10.056Z,4.0
2023-11-29T02:53:09.425Z,3.9
2023-11-29T02:56:09.660Z,4.0
2023-11-29T02:59:09.403Z,4.1
2023-11-29T03:02:09.919Z,4.1
2023-11-29T03:05:09.755Z,4.1
2023-11-29T03:08:09.480Z,4.2
2023-11-29T03:11:09.336Z,4.3
2023-11-29T03:14:09.500Z,4.3
2023-11-29T03:17:09.553Z,4.2
2023-11-29T03:20:09.778Z,4.3
2023-11-29T03:23:10.633Z,4.3
2023-11-29T03:26:09.553Z,4.4
2023-11-29T03:29:09.346Z,4.4
2023-11-29T03:32:09.634Z,4.3
2023-11-29T03:35:09.636Z,4.3
2023-11-29T03:38:09.394Z,4.4
2023-11-29T03:41:09.357Z,4.5
2023-11-29T03:44:09.404Z,4.5
2023-11-29T03:47:10.313Z,4.4
2023-11-29T03:50:10.013Z,4.4
2023-11-29T03:53:19.149Z,4.6
2023-11-29T03:56:09.441Z,4.6
2023-11-29T03:59:10.590Z,4.3
2023-11-29T04:02:13.545Z,4.1
2023-11-29T04:05:09.761Z,4.0
2023-11-29T04:08:09.452Z,3.9
2023-11-29T04:11:19.039Z,3.9
2023-11-29T04:14:09.376Z,3.9
2023-11-29T04:17:11.047Z,3.9
2023-11-29T04:20:09.585Z,3.8
2023-11-29T04:23:09.349Z,3.9
2023-11-29T04:26:09.233Z,4.0
2023-11-29T04:29:09.449Z,3.9
2023-11-29T04:32:10.192Z,3.9
2023-11-29T04:35:23.330Z,4.1
2023-11-29T04:38:11.613Z,4.0
2023-11-29T04:41:09.606Z,4.0
2023-11-29T04:44:10.834Z,4.0
2023-11-29T04:47:09.699Z,3.9
2023-11-29T04:50:09.740Z,3.8
2023-11-29T04:53:09.341Z,3.7
2023-11-29T04:56:09.351Z,3.8
2023-11-29T04:59:09.335Z,3.8
2023-11-29T05:02:09.847Z,4.0
2023-11-29T05:05:12.001Z,4.2
2023-11-29T05:08:09.458Z,4.8
2023-11-29T05:11:09.368Z,5.4
2023-11-29T05:14:09.792Z,5.3
2023-11-29T05:17:15.178Z,5.1
2023-11-29T05:20:12.426Z,5.1
2023-11-29T05:23:09.477Z,5.4
2023-11-29T05:26:09.704Z,5.7
2023-11-29T05:29:09.616Z,5.6
2023-11-29T05:32:10.035Z,5.8
2023-11-29T05:35:09.749Z,6.1
2023-11-29T05:38:09.484Z,6.2
2023-11-29T05:41:09.709Z,6.0
2023-11-29T05:44:09.419Z,5.7
2023-11-29T05:47:10.220Z,5.4
2023-11-29T05:50:09.798Z,5.1
2023-11-29T05:53:10.159Z,5.0
2023-11-29T05:56:09.564Z,5.0
2023-11-29T05:59:09.859Z,4.8
2023-11-29T06:02:16.895Z,4.7
2023-11-29T06:05:10.621Z,4.6
2023-11-29T06:08:09.578Z,4.5
2023-11-29T06:11:09.598Z,4.5
2023-11-29T06:14:09.523Z,4.5
2023-11-29T06:17:15.422Z,4.5
2023-11-29T06:20:12.562Z,4.6
2023-11-29T06:23:09.456Z,4.6
2023-11-29T06:26:09.813Z,4.7
2023-11-29T06:29:09.522Z,4.6
2023-11-29T06:32:10.154Z,4.6
2023-11-29T06:35:09.754Z,4.6
2023-11-29T06:38:19.041Z,4.5
2023-11-29T06:41:18.481Z,4.6
2023-11-29T06:44:09.841Z,4.6
2023-11-29T06:47:09.846Z,4.4
2023-11-29T06:50:09.624Z,4.5
2023-11-29T06:53:09.616Z,4.6
2023-11-29T06:56:09.586Z,4.5
2023-11-29T06:59:16.253Z,4.5
2023-11-29T07:02:10.932Z,4.6
2023-11-29T07:05:12.700Z,4.6
2023-11-29T07:08:09.871Z,4.7
2023-11-29T07:11:09.737Z,4.7
2023-11-29T07:14:10.108Z,4.7
2023-11-29T07:17:10.535Z,4.6
2023-11-29T07:20:10.044Z,4.6
2023-11-29T07:23:09.458Z,4.6
2023-11-29T07:26:13.501Z,4.7
2023-11-29T07:29:09.736Z,5.2
2023-11-29T07:32:10.116Z,5.9
2023-11-29T07:35:09.849Z,6.3
2023-11-29T07:38:10.697Z,6.5
2023-11-29T07:41:10.758Z,6.8
2023-11-29T07:44:09.482Z,7.0
2023-11-29T07:47:10.470Z,7.2
2023-11-29T07:50:10.119Z,7.2
2023-11-29T07:53:09.897Z,7.3
2023-11-29T07:56:10.069Z,7.2
2023-11-29T07:59:17.327Z,7.2
2023-11-29T08:02:10.493Z,7.0
2023-11-29T08:05:09.804Z,6.6
2023-11-29T08:08:09.723Z,5.9
2023-11-29T08:11:09.437Z,4.8
2023-11-29T08:14:09.561Z,4.5
2023-11-29T08:17:09.367Z,4.6
2023-11-29T08:20:09.779Z,4.6
2023-11-29T08:23:09.693Z,4.6
2023-11-29T08:26:09.545Z,4.5
2023-11-29T08:29:09.363Z,4.4
2023-11-29T08:32:09.645Z,4.4
2023-11-29T08:35:09.626Z,4.6
2023-11-29T08:38:09.399Z,4.6
2023-11-29T08:41:09.627Z,4.6
2023-11-29T08:44:19.722Z,4.7
2023-11-29T08:47:09.698Z,4.6
2023-11-29T08:50:11.561Z,4.7
2023-11-29T08:53:11.156Z,4.7
2023-11-29T08:56:09.617Z,4.8
2023-11-29T08:59:11.330Z,4.8
2023-11-29T09:02:10.686Z,4.9
2023-11-29T09:05:09.928Z,5.0
2023-11-29T09:08:09.458Z,5.1
2023-11-29T09:11:09.862Z,5.2
2023-11-29T09:14:09.480Z,5.3
2023-11-29T09:17:11.703Z,5.4
2023-11-29T09:20:09.673Z,5.4
2023-11-29T09:23:09.587Z,5.5
2023-11-29T09:26:11.098Z,5.5
2023-11-29T09:29:09.405Z,5.6
2023-11-29T09:32:09.776Z,5.6
2023-11-29T09:35:09.843Z,5.6
2023-11-29T09:38:09.405Z,5.6
2023-11-29T09:41:09.720Z,5.6
2023-11-29T09:44:09.424Z,5.7
2023-11-29T09:47:09.619Z,5.8
2023-11-29T09:50:10.931Z,5.9
2023-11-29T09:53:09.518Z,5.9
2023-11-29T09:56:09.864Z,6.0
2023-11-29T09:59:09.412Z,6.1
2023-11-29T10:02:09.711Z,6.1
2023-11-29T10:05:11.207Z,6.2
2023-11-29T10:08:11.483Z,6.2
2023-11-29T10:11:09.595Z,6.2
2023-11-29T10:14:09.579Z,6.2
2023-11-29T10:17:11.174Z,6.2
2023-11-29T10:20:10.176Z,6.3
2023-11-29T10:23:13.298Z,6.1
2023-11-29T10:26:09.778Z,6.1
2023-11-29T10:29:11.997Z,6.2
2023-11-29T10:32:10.181Z,6.2
2023-11-29T10:35:09.800Z,6.3
2023-11-29T10:38:11.510Z,6.4
2023-11-29T10:41:09.477Z,6.5
2023-11-29T10:44:10.597Z,6.5
2023-11-29T10:47:09.993Z,6.5
2023-11-29T10:50:10.134Z,6.5
2023-11-29T10:53:09.584Z,6.5
2023-11-29T10:56:19.383Z,6.4
2023-11-29T10:59:10.581Z,6.4
2023-11-29T11:02:10.764Z,6.4
2023-11-29T11:05:12.498Z,6.5
2023-11-29T11:08:09.553Z,6.5
2023-11-29T11:11:09.931Z,6.6
2023-11-29T11:14:09.568Z,6.6
2023-11-29T11:17:10.284Z,6.6
2023-11-29T11:20:09.573Z,6.6
2023-11-29T11:23:09.618Z,6.6
2023-11-29T11:26:09.329Z,6.7
2023-11-29T11:29:09.736Z,6.7
2023-11-29T11:32:09.965Z,6.7
2023-11-29T11:35:09.627Z,6.8
2023-11-29T11:38:09.464Z,6.9
2023-11-29T11:41:10.375Z,6.8
2023-11-29T11:44:10.667Z,6.8
2023-11-29T11:47:10.198Z,6.9
2023-11-29T11:50:11.235Z,6.9
2023-11-29T11:53:09.472Z,6.9
2023-11-29T11:56:10.860Z,6.8
2023-11-29T11:59:10.162Z,6.9
2023-11-29T12:02:10.935Z,6.9
2023-11-29T12:05:09.951Z,7.2
2023-11-29T12:08:09.464Z,7.3
2023-11-29T12:11:10.421Z,7.2
2023-11-29T12:14:09.909Z,7.0
2023-11-29T12:17:10.323Z,7.0
2023-11-29T12:20:10.611Z,6.9
2023-11-29T12:23:09.691Z,6.8
2023-11-29T12:26:20.273Z,6.8
2023-11-29T12:29:09.201Z,6.8
2023-11-29T12:32:09.397Z,6.9
2023-11-29T12:35:11.627Z,7.0
2023-11-29T12:38:09.234Z,7.3
2023-11-29T12:41:09.873Z,7.8
2023-11-29T12:44:09.239Z,8.0
2023-11-29T12:47:09.365Z,8.2
2023-11-29T12:50:10.104Z,8.2
2023-11-29T12:53:09.256Z,8.3
2023-11-29T12:56:17.989Z,8.1
2023-11-29T12:59:09.281Z,8.0
2023-11-29T13:02:09.876Z,8.0
2023-11-29T13:05:09.404Z,7.8
2023-11-29T13:08:09.159Z,7.4
2023-11-29T13:11:09.194Z,6.9
2023-11-29T13:14:09.321Z,6.6
2023-11-29T13:17:09.625Z,6.3
2023-11-29T13:20:09.741Z,6.2
2023-11-29T13:23:09.418Z,6.1
2023-11-29T13:26:09.900Z,6.1
2023-11-29T13:29:09.998Z,6.1
2023-11-29T13:32:09.428Z,6.4
2023-11-29T13:35:12.042Z,7.0
2023-11-29T13:38:09.338Z,7.5
2023-11-29T13:41:10.915Z,7.7
2023-11-29T13:44:11.149Z,7.5
2023-11-29T13:47:09.489Z,7.2
2023-11-29T13:50:10.256Z,7.0
2023-11-29T13:53:19.866Z,6.8
2023-11-29T13:56:09.129Z,6.6
2023-11-29T13:59:10.020Z,6.4
2023-11-29T14:02:11.673Z,6.3
2023-11-29T14:05:21.392Z,6.2
2023-11-29T14:08:09.676Z,6.1
2023-11-29T14:11:09.857Z,6.1
2023-11-29T14:14:09.504Z,6.1
2023-11-29T14:17:10.211Z,6.1
2023-11-29T14:20:09.830Z,6.2
2023-11-29T14:23:10.017Z,6.1
2023-11-29T14:26:09.821Z,6.2
2023-11-29T14:29:20.692Z,6.1
2023-11-29T14:32:09.811Z,6.1
2023-11-29T14:35:14.120Z,6.0
2023-11-29T14:38:09.765Z,6.0
2023-11-29T14:41:24.949Z,6.0
2023-11-29T14:44:09.743Z,6.0
2023-11-29T14:47:09.763Z,6.1
2023-11-29T14:50:18.867Z,6.2
2023-11-29T14:53:09.386Z,6.2
2023-11-29T14:56:09.453Z,6.1
2023-11-29T14:59:09.463Z,6.2
2023-11-29T15:02:10.023Z,6.2
2023-11-29T15:05:09.724Z,6.3
2023-11-29T15:08:09.556Z,6.4
2023-11-29T15:11:10.322Z,6.3
2023-11-29T15:14:14.637Z,6.3
2023-11-29T15:17:10.085Z,6.2
2023-11-29T15:20:10.003Z,6.2
2023-11-29T15:23:09.507Z,6.2
2023-11-29T15:26:19.233Z,6.2
2023-11-29T15:29:09.460Z,6.1
2023-11-29T15:32:10.327Z,6.1
2023-11-29T15:35:10.850Z,6.1
2023-11-29T15:38:10.070Z,6.2
2023-11-29T15:41:16.923Z,6.3
2023-11-29T15:44:09.669Z,6.3
2023-11-29T15:47:10.463Z,6.4
2023-11-29T15:50:10.604Z,6.3
2023-11-29T15:53:09.825Z,6.3
2023-11-29T15:56:10.713Z,6.3
2023-11-29T15:59:09.516Z,6.2
2023-11-29T16:02:10.724Z,6.2
2023-11-29T16:05:10.247Z,6.2
2023-11-29T16:08:09.839Z,6.2
2023-11-29T16:11:09.433Z,6.3
2023-11-29T16:14:09.733Z,6.4
2023-11-29T16:17:10.398Z,6.4
2023-11-29T16:20:09.952Z,6.3
2023-11-29T16:23:09.534Z,6.3
2023-11-29T16:26:09.512Z,6.2
2023-11-29T16:29:10.110Z,6.2
2023-11-29T16:32:10.534Z,6.3
2023-11-29T16:35:10.847Z,6.3
2023-11-29T16:38:09.431Z,6.2
2023-11-29T16:41:09.623Z,6.1
2023-11-29T16:44:09.520Z,6.0
2023-11-29T16:47:13.871Z,5.9
2023-11-29T16:50:12.321Z,5.8
2023-11-29T16:53:12.670Z,5.7
2023-11-29T17:59:09.279Z,8.0
2023-11-29T18:02:09.934Z,8.0
2023-11-29T18:05:10.259Z,8.0
2023-11-29T18:08:09.497Z,8.0
2023-11-29T18:11:09.591Z,7.9
2023-11-29T18:14:09.695Z,7.9
2023-11-29T18:17:10.163Z,7.9
2023-11-29T18:20:10.038Z,7.9
2023-11-29T18:23:09.502Z,7.6
2023-11-29T18:26:19.697Z,6.9
2023-11-29T18:29:09.553Z,6.5
2023-11-29T18:32:09.910Z,6.2
2023-11-29T18:35:13.358Z,6.0
2023-11-29T18:38:09.505Z,5.8
2023-11-29T18:41:09.604Z,5.7
2023-11-29T18:44:09.549Z,5.5
2023-11-29T18:47:10.355Z,5.3
2023-11-29T18:50:10.268Z,5.2
2023-11-29T18:53:11.066Z,5.1
2023-11-29T18:56:09.574Z,5.0
2023-11-29T18:59:13.692Z,4.9
2023-11-29T19:02:10.267Z,4.9
2023-11-29T19:05:10.674Z,4.8
2023-11-29T19:08:09.591Z,4.8
2023-11-29T19:11:09.638Z,4.8
2023-11-29T19:14:09.524Z,4.7
2023-11-29T19:17:09.794Z,4.4
2023-11-29T19:20:09.832Z,4.4
2023-11-29T19:23:17.438Z,4.5
2023-11-29T19:26:09.561Z,4.5
2023-11-29T19:29:09.468Z,4.5
2023-11-29T19:32:09.686Z,4.4
2023-11-29T19:35:18.010Z,4.4
2023-11-29T19:38:09.497Z,4.4
2023-11-29T19:41:09.547Z,4.3
2023-11-29T19:44:09.547Z,4.2
2023-11-29T19:47:21.678Z,4.2
2023-11-29T19:50:09.918Z,4.3
2023-11-29T19:53:20.238Z,4.3
2023-11-29T19:56:09.565Z,4.3
2023-11-29T19:59:18.785Z,4.3
2023-11-29T20:02:10.075Z,4.4
2023-11-29T20:05:10.543Z,4.3
2023-11-29T20:08:17.192Z,4.3
2023-11-29T20:11:11.839Z,4.2
2023-11-29T20:14:13.482Z,4.2
2023-11-29T20:17:09.682Z,4.3
2023-11-29T20:20:18.572Z,4.2
2023-11-29T20:23:12.767Z,4.2
2023-11-29T20:26:09.436Z,4.2
2023-11-29T20:29:09.439Z,4.1
2023-11-29T20:32:12.205Z,4.2
2023-11-29T20:35:52.575Z,4.2
2023-11-29T20:41:19.319Z,4.2
2023-11-29T20:44:09.415Z,4.2
2023-11-29T20:47:09.713Z,4.2
2023-11-29T20:50:09.989Z,4.3
2023-11-29T20:53:19.457Z,4.3
2023-11-29T20:56:09.457Z,4.4
2023-11-29T20:59:10.935Z,4.4
2023-11-29T21:02:09.904Z,4.4
2023-11-29T21:05:10.592Z,4.2
2023-11-29T21:08:09.443Z,4.0
2023-11-29T21:11:09.616Z,4.0
2023-11-29T21:14:09.535Z,4.0
2023-11-29T21:17:09.870Z,3.8
2023-11-29T21:20:10.223Z,3.9
2023-11-29T21:23:09.613Z,4.3
2023-11-29T21:26:09.556Z,4.9
2023-11-29T21:29:09.541Z,5.2
2023-11-29T21:32:09.745Z,5.5
2023-11-29T21:35:09.819Z,5.7
2023-11-29T21:38:09.686Z,5.9
2023-11-29T21:41:09.539Z,6.3
2023-11-29T21:44:09.672Z,6.5
2023-11-29T21:47:09.732Z,6.7
2023-11-29T21:50:09.944Z,6.8
2023-11-29T21:53:11.085Z,6.9
2023-11-29T21:56:09.589Z,7.0
2023-11-29T21:59:09.573Z,6.9
2023-11-29T22:02:10.131Z,7.0
2023-11-29T22:05:10.022Z,7.1
2023-11-29T22:08:09.496Z,7.1
2023-11-29T22:11:09.705Z,7.2
2023-11-29T22:14:09.717Z,7.3
2023-11-29T22:17:09.919Z,7.4
2023-11-29T22:20:10.101Z,7.5
2023-11-29T22:23:09.590Z,7.5
2023-11-29T22:26:10.046Z,7.6
2023-11-29T22:29:10.142Z,7.6
2023-11-29T22:32:10.236Z,7.6
2023-11-29T22:35:09.917Z,7.6
2023-11-29T22:38:09.447Z,7.7
2023-11-29T22:41:09.791Z,7.7
2023-11-29T22:44:09.480Z,7.7
2023-11-29T22:47:10.037Z,7.8
2023-11-29T22:50:10.206Z,7.8
2023-11-29T22:53:13.422Z,7.8
2023-11-29T22:56:09.781Z,7.7
2023-11-29T22:59:09.533Z,7.8
2023-11-29T23:02:09.980Z,7.7
2023-11-29T23:05:13.544Z,7.7
2023-11-29T23:08:09.953Z,7.6
2023-11-29T23:11:09.686Z,7.6
2023-11-29T23:14:09.476Z,7.6
2023-11-29T23:17:10.124Z,7.6
2023-11-29T23:20:10.068Z,7.6
2023-11-29T23:23:13.738Z,7.6
2023-11-29T23:26:10.889Z,7.6
2023-11-29T23:29:09.528Z,7.7
2023-11-29T23:32:10.025Z,7.7
2023-11-29T23:35:09.892Z,7.7
2023-11-29T23:38:10.178Z,7.7
2023-11-29T23:41:09.397Z,7.7
2023-11-29T23:44:09.455Z,7.6
2023-11-29T23:47:09.532Z,7.6
2023-11-29T23:50:09.771Z,7.6
2023-11-29T23:53:09.521Z,7.4
2023-11-29T23:56:09.596Z,6.6
2023-11-29T23:59:09.430Z,6.1
